createdAt,value
2019-01-11T00:04:14.554Z,2.00
2019-01-11T00:09:14.157Z,2.10
2019-01-11T00:14:13.813Z,2.00
2019-01-11T00:19:13.430Z,2.10
2019-01-11T00:24:13.001Z,2.10
2019-01-11T00:29:12.546Z,2.10
2019-01-11T00:34:12.074Z,2.20
2019-01-11T00:39:11.610Z,2.00
2019-01-11T00:44:11.166Z,2.10
2019-01-11T00:49:13.692Z,2.10
2019-01-11T00:54:12.018Z,2.30
2019-01-11T00:59:11.730Z,2.20
2019-01-11T01:04:11.382Z,2.00
2019-01-11T01:09:11.020Z,1.90
2019-01-11T01:14:11.286Z,1.90
2019-01-11T01:19:10.815Z,1.90
2019-01-11T01:24:10.423Z,1.90
2019-01-11T01:29:09.968Z,1.90
2019-01-11T01:34:09.583Z,1.80
2019-01-11T01:39:09.206Z,2.00
2019-01-11T01:44:08.821Z,2.00
2019-01-11T01:49:08.350Z,2.00
2019-01-11T01:54:07.886Z,1.80
2019-01-11T01:59:07.422Z,1.90
2019-01-11T02:04:06.950Z,2.00
2019-01-11T02:09:08.149Z,1.90
2019-01-11T02:14:07.861Z,1.90
2019-01-11T02:19:07.461Z,2.00
2019-01-11T02:24:07.121Z,2.10
2019-01-11T02:29:06.661Z,2.10
2019-01-11T02:34:06.293Z,2.20
2019-01-11T02:39:07.459Z,2.10
2019-01-11T02:44:07.001Z,2.00
2019-01-11T02:49:06.614Z,2.00
2019-01-11T02:54:06.214Z,2.10
2019-01-11T02:59:05.843Z,2.20
2019-01-11T03:04:05.614Z,2.20
2019-01-11T03:09:07.518Z,2.10
2019-01-11T03:14:07.161Z,2.20
2019-01-11T03:19:06.945Z,2.20
2019-01-11T03:24:07.530Z,2.10
2019-01-11T03:29:07.077Z,2.10
2019-01-11T03:34:06.616Z,2.20
2019-01-11T03:39:07.944Z,2.10
2019-01-11T03:44:07.649Z,2.00
2019-01-11T03:49:07.177Z,2.00
2019-01-11T03:54:06.726Z,2.00
2019-01-11T03:59:06.268Z,2.10
2019-01-11T04:04:06.153Z,2.00
2019-01-11T04:09:09.454Z,2.10
2019-01-11T04:14:09.093Z,2.00
2019-01-11T04:19:12.597Z,1.90
2019-01-11T04:24:12.130Z,1.80
2019-01-11T04:29:12.020Z,1.80
2019-01-11T04:34:11.635Z,1.90
2019-01-11T04:39:11.179Z,1.80
2019-01-11T04:44:10.861Z,1.90
2019-01-11T04:49:10.414Z,1.80
2019-01-11T04:54:09.981Z,1.70
2019-01-11T04:59:09.532Z,1.80
2019-01-11T05:04:09.075Z,1.80
2019-01-11T05:09:08.688Z,1.80
2019-01-11T05:14:08.225Z,1.70
2019-01-11T05:19:07.772Z,1.70
2019-01-11T05:24:07.413Z,1.80
2019-01-11T05:29:06.952Z,1.70
2019-01-11T05:34:06.557Z,1.60
2019-01-11T05:39:08.566Z,1.60
2019-01-11T05:44:08.597Z,1.60
2019-01-11T05:49:08.206Z,1.60
2019-01-11T05:54:07.820Z,1.60
2019-01-11T05:59:08.567Z,1.50
2019-01-11T06:04:42.490Z,1.60
2019-01-11T06:09:42.041Z,1.70
2019-01-11T06:14:41.570Z,1.60
2019-01-11T06:19:41.146Z,1.70
2019-01-11T06:24:40.667Z,1.70
2019-01-11T06:29:41.377Z,1.70
2019-01-11T06:34:40.926Z,1.70
2019-01-11T06:39:41.518Z,1.70
2019-01-11T06:44:42.129Z,1.70
2019-01-11T06:49:41.678Z,1.70
2019-01-11T06:54:41.245Z,1.60
2019-01-11T06:59:40.777Z,1.70
2019-01-11T07:04:40.658Z,1.70
2019-01-11T07:09:40.485Z,1.70
2019-01-11T07:14:40.629Z,1.60
2019-01-11T07:19:41.693Z,1.50
2019-01-11T07:24:42.412Z,1.50
2019-01-11T07:29:43.371Z,1.50
2019-01-11T07:34:42.948Z,1.60
2019-01-11T07:39:42.474Z,1.60
2019-01-11T07:44:42.021Z,1.60
2019-01-11T07:49:41.565Z,1.60
2019-01-11T07:54:42.177Z,1.80
2019-01-11T07:59:41.938Z,1.70
2019-01-11T08:04:41.535Z,1.60
2019-01-11T08:09:41.090Z,1.70
2019-01-11T08:14:40.618Z,1.80
2019-01-11T08:19:40.162Z,1.70
2019-01-11T08:24:41.341Z,1.80
2019-01-11T08:29:40.886Z,1.90
2019-01-11T08:34:40.430Z,1.80
2019-01-11T08:39:39.985Z,1.90
2019-01-11T08:44:39.528Z,1.90
2019-01-11T08:49:39.081Z,2.00
2019-01-11T08:54:38.626Z,2.00
2019-01-11T08:59:38.153Z,2.00
2019-01-11T09:04:37.704Z,2.00
2019-01-11T09:09:37.243Z,2.00
2019-01-11T09:14:55.467Z,2.00
2019-01-11T09:19:54.993Z,2.00
2019-01-11T09:24:54.533Z,1.90
2019-01-11T09:29:54.142Z,2.10
2019-01-11T09:34:53.838Z,2.10
2019-01-11T09:39:53.414Z,2.10
2019-01-11T09:44:53.253Z,2.10
2019-01-11T09:49:52.861Z,2.20
2019-01-11T09:54:55.213Z,2.20
2019-01-11T09:59:54.781Z,2.30
2019-01-11T10:04:54.327Z,2.20
2019-01-11T10:09:54.474Z,2.10
2019-01-11T10:14:54.077Z,2.30
2019-01-11T10:19:53.773Z,2.40
2019-01-11T10:24:53.386Z,2.40
2019-01-11T10:29:52.917Z,2.40
2019-01-11T10:34:52.467Z,2.50
2019-01-11T10:39:52.008Z,2.50
2019-01-11T10:44:51.546Z,2.60
2019-01-11T10:49:51.085Z,2.60
2019-01-11T10:54:50.713Z,2.60
2019-01-11T10:59:50.910Z,2.70
2019-01-11T11:04:50.454Z,2.80
2019-01-11T11:09:50.075Z,2.70
2019-01-11T11:14:49.601Z,2.80
2019-01-11T11:19:49.145Z,2.80
2019-01-11T11:24:48.678Z,2.70
2019-01-11T11:29:48.213Z,2.80
2019-01-11T11:34:48.710Z,2.90
2019-01-11T11:39:48.330Z,2.90
2019-01-11T11:44:47.877Z,3.00
2019-01-11T11:49:47.430Z,3.00
2019-01-11T11:54:47.009Z,3.10
2019-01-11T11:59:46.554Z,3.20
2019-01-11T12:04:46.109Z,3.30
2019-01-11T12:09:45.645Z,3.40
2019-01-11T12:14:45.185Z,3.40
2019-01-11T12:19:44.729Z,3.40
2019-01-11T12:24:44.262Z,3.40
2019-01-11T12:29:43.794Z,3.40
2019-01-11T12:34:43.364Z,3.50
2019-01-11T12:39:42.906Z,3.60
2019-01-11T12:44:42.453Z,3.60
2019-01-11T12:49:42.018Z,3.60
2019-01-11T12:54:41.554Z,3.80
2019-01-11T12:59:41.095Z,3.60
2019-01-11T13:04:40.809Z,3.70
2019-01-11T13:09:40.349Z,3.80
2019-01-11T13:14:39.921Z,3.90
2019-01-11T13:19:39.483Z,4.00
2019-01-11T13:24:39.025Z,4.10
2019-01-11T13:29:38.584Z,4.10
2019-01-11T13:34:38.259Z,4.10
2019-01-11T13:39:38.901Z,4.20
2019-01-11T13:44:44.880Z,4.30
2019-01-11T13:49:46.090Z,4.30
2019-01-11T13:54:45.652Z,4.40
2019-01-11T13:59:45.201Z,4.50
2019-01-11T14:04:44.832Z,4.60
2019-01-11T14:09:44.426Z,4.70
2019-01-11T14:14:43.969Z,4.80
2019-01-11T14:19:43.585Z,4.80
2019-01-11T14:24:43.125Z,4.80
2019-01-11T14:29:42.649Z,4.70
2019-01-11T14:34:42.270Z,4.80
2019-01-11T14:39:41.818Z,4.90
2019-01-11T14:44:41.367Z,4.90
2019-01-11T14:49:40.894Z,5.00
2019-01-11T14:54:40.447Z,5.00
2019-01-11T14:59:39.981Z,5.10
2019-01-11T15:04:39.513Z,5.00
2019-01-11T15:09:39.065Z,5.10
2019-01-11T15:14:38.586Z,5.20
2019-01-11T15:19:38.206Z,5.20
2019-01-11T15:24:38.045Z,5.20
2019-01-11T15:29:37.649Z,5.30
2019-01-11T15:34:37.190Z,5.30
2019-01-11T15:39:36.809Z,5.40
2019-01-11T15:44:36.475Z,5.40
2019-01-11T15:49:36.017Z,5.50
2019-01-11T15:54:37.747Z,5.50
2019-01-11T16:00:00.345Z,5.50
2019-01-11T16:05:00.478Z,5.50
2019-01-11T16:10:08.409Z,5.70
2019-01-11T16:15:22.594Z,5.70
2019-01-11T16:20:22.149Z,5.70
2019-01-11T16:25:21.684Z,5.70
2019-01-11T16:30:21.227Z,5.80
2019-01-11T16:35:20.772Z,5.90
2019-01-11T16:40:20.306Z,5.90
2019-01-11T16:45:20.018Z,5.90
2019-01-11T16:50:19.690Z,5.90
2019-01-11T16:55:19.214Z,6.00
2019-01-11T17:00:19.134Z,6.10
2019-01-11T17:05:18.750Z,6.10
2019-01-11T17:10:18.293Z,6.10
2019-01-11T17:15:18.352Z,6.10
2019-01-11T17:20:18.222Z,6.20
2019-01-11T17:25:17.773Z,6.20
2019-01-11T17:30:18.503Z,6.30
2019-01-11T17:35:19.017Z,6.30
2019-01-11T17:40:18.612Z,6.30
2019-01-11T17:45:18.187Z,6.40
2019-01-11T17:50:19.177Z,6.30
2019-01-11T17:55:19.694Z,6.30
2019-01-11T18:00:19.445Z,6.40
2019-01-11T18:05:18.982Z,6.50
2019-01-11T18:10:18.515Z,6.50
2019-01-11T18:15:20.423Z,6.50
2019-01-11T18:20:25.133Z,6.60
2019-01-11T18:25:24.819Z,6.60
2019-01-11T18:30:24.367Z,6.60
2019-01-11T18:35:23.903Z,6.60
2019-01-11T18:40:25.163Z,6.60
2019-01-11T18:45:28.543Z,6.60
2019-01-11T18:50:25.994Z,6.60
2019-01-11T18:55:25.542Z,6.50
2019-01-11T19:00:25.670Z,6.60
2019-01-11T19:05:25.205Z,6.60
2019-01-11T19:10:24.824Z,6.60
2019-01-11T19:15:26.959Z,6.60
2019-01-11T19:20:28.704Z,6.60
2019-01-11T19:25:28.486Z,6.60
2019-01-11T19:30:28.917Z,6.60
2019-01-11T19:35:28.465Z,6.60
2019-01-11T19:40:28.238Z,6.60
2019-01-11T19:45:27.864Z,6.60
2019-01-11T19:50:29.004Z,6.60
2019-01-11T19:55:29.075Z,6.60
2019-01-11T20:00:48.680Z,6.60
2019-01-11T20:05:48.476Z,6.70
2019-01-11T20:10:47.997Z,6.60
2019-01-11T20:15:47.669Z,6.60
2019-01-11T20:20:47.204Z,6.60
2019-01-11T20:25:46.746Z,6.60
2019-01-11T20:30:46.285Z,6.50
2019-01-11T20:35:45.986Z,6.60
2019-01-11T20:40:45.611Z,6.50
2019-01-11T20:45:45.270Z,6.50
2019-01-11T20:50:44.806Z,6.40
2019-01-11T20:55:45.449Z,6.50
2019-01-11T21:00:45.154Z,6.50
2019-01-11T21:05:44.771Z,6.40
2019-01-11T21:10:44.313Z,6.40
2019-01-11T21:15:44.759Z,6.40
2019-01-11T21:20:44.704Z,6.50
2019-01-11T21:25:44.471Z,6.40
2019-01-11T21:30:44.007Z,6.40
2019-01-11T21:35:43.558Z,6.40
2019-01-11T21:40:43.109Z,6.40
2019-01-11T21:45:42.675Z,6.40
2019-01-11T21:50:42.274Z,6.40
2019-01-11T21:55:42.163Z,6.40
2019-01-11T22:00:45.234Z,6.40
2019-01-11T22:05:44.781Z,6.40
2019-01-11T22:10:44.543Z,6.40
2019-01-11T22:15:45.884Z,6.40
2019-01-11T22:20:45.718Z,6.30
2019-01-11T22:25:45.307Z,6.40
2019-01-11T22:30:45.453Z,6.40
2019-01-11T22:35:46.452Z,6.40
2019-01-11T22:40:46.158Z,6.40
2019-01-11T22:45:45.720Z,6.40
2019-01-11T22:50:45.274Z,6.40
2019-01-11T22:55:44.808Z,6.40
2019-01-11T23:01:11.526Z,6.40
2019-01-11T23:06:58.618Z,6.40
2019-01-11T23:12:26.800Z,6.30
2019-01-11T23:17:47.921Z,6.40
2019-01-11T23:22:47.465Z,6.30
2019-01-11T23:27:47.009Z,6.40
2019-01-11T23:32:46.697Z,6.40
2019-01-11T23:37:46.231Z,6.40
2019-01-11T23:42:45.829Z,6.40
2019-01-11T23:47:45.361Z,6.30
2019-01-11T23:52:44.986Z,6.30
2019-01-11T23:57:44.610Z,6.30
